sensor_id;sensor_type;location;lat;lon;timestamp;P1;durP1;ratioP1;P2;durP2;ratioP2
1026;SDS011;502;48.746;9.214;2023-05-10T00:00:45;1.43;;;1.00;;
1026;SDS011;502;48.746;9.214;2023-05-10T00:03:12;1.53;;;1.30;;
1026;SDS011;502;48.746;9.214;2023-05-10T00:05:38;2.20;;;1.30;;
1026;SDS011;502;48.746;9.214;2023-05-10T00:08:05;5.23;;;2.30;;
1026;SDS011;502;48.746;9.214;2023-05-10T00:10:31;1.90;;;1.40;;
1026;SDS011;502;48.746;9.214;2023-05-10T00:12:58;1.93;;;1.17;;
1026;SDS011;502;48.746;9.214;2023-05-10T00:15:24;1.90;;;1.37;;
1026;SDS011;502;48.746;9.214;2023-05-10T00:17:52;1.90;;;1.10;;
1026;SDS011;502;48.746;9.214;2023-05-10T00:20:19;1.30;;;1.10;;
1026;SDS011;502;48.746;9.214;2023-05-10T00:22:45;1.63;;;1.00;;
1026;SDS011;502;48.746;9.214;2023-05-10T00:25:12;1.90;;;0.90;;
1026;SDS011;502;48.746;9.214;2023-05-10T00:27:38;1.30;;;0.90;;
1026;SDS011;502;48.746;9.214;2023-05-10T00:30:05;1.50;;;0.97;;
1026;SDS011;502;48.746;9.214;2023-05-10T00:32:34;1.20;;;0.80;;
1026;SDS011;502;48.746;9.214;2023-05-10T00:35:02;1.20;;;0.70;;
1026;SDS011;502;48.746;9.214;2023-05-10T00:37:28;2.13;;;0.70;;
1026;SDS011;502;48.746;9.214;2023-05-10T00:39:55;0.80;;;0.50;;
1026;SDS011;502;48.746;9.214;2023-05-10T00:42:21;1.33;;;0.50;;
1026;SDS011;502;48.746;9.214;2023-05-10T00:44:48;1.10;;;0.40;;
1026;SDS011;502;48.746;9.214;2023-05-10T00:47:15;1.63;;;0.50;;
1026;SDS011;502;48.746;9.214;2023-05-10T00:49:41;0.97;;;0.50;;
1026;SDS011;502;48.746;9.214;2023-05-10T00:52:11;1.00;;;0.50;;
1026;SDS011;502;48.746;9.214;2023-05-10T00:54:37;1.90;;;0.60;;
1026;SDS011;502;48.746;9.214;2023-05-10T00:57:04;0.93;;;0.40;;
1026;SDS011;502;48.746;9.214;2023-05-10T00:59:30;1.00;;;0.50;;
1026;SDS011;502;48.746;9.214;2023-05-10T01:01:57;1.00;;;0.47;;
1026;SDS011;502;48.746;9.214;2023-05-10T01:04:24;1.33;;;0.40;;
1026;SDS011;502;48.746;9.214;2023-05-10T01:06:51;1.13;;;0.43;;
1026;SDS011;502;48.746;9.214;2023-05-10T01:09:20;0.90;;;0.40;;
1026;SDS011;502;48.746;9.214;2023-05-10T01:11:46;0.83;;;0.40;;
1026;SDS011;502;48.746;9.214;2023-05-10T01:14:13;1.87;;;0.40;;
1026;SDS011;502;48.746;9.214;2023-05-10T01:16:41;0.90;;;0.30;;
1026;SDS011;502;48.746;9.214;2023-05-10T01:19:10;0.80;;;0.40;;
1026;SDS011;502;48.746;9.214;2023-05-10T01:21:42;1.00;;;0.30;;
1026;SDS011;502;48.746;9.214;2023-05-10T01:24:28;1.40;;;0.50;;
1026;SDS011;502;48.746;9.214;2023-05-10T01:27:15;1.50;;;0.40;;
1026;SDS011;502;48.746;9.214;2023-05-10T01:32:47;1.33;;;0.40;;
1026;SDS011;502;48.746;9.214;2023-05-10T01:35:19;1.20;;;0.30;;
1026;SDS011;502;48.746;9.214;2023-05-10T01:37:52;0.93;;;0.40;;
1026;SDS011;502;48.746;9.214;2023-05-10T01:40:26;3.40;;;0.67;;
1026;SDS011;502;48.746;9.214;2023-05-10T01:43:00;0.73;;;0.30;;
1026;SDS011;502;48.746;9.214;2023-05-10T01:45:28;1.00;;;0.50;;
1026;SDS011;502;48.746;9.214;2023-05-10T01:48:02;0.90;;;0.60;;
1026;SDS011;502;48.746;9.214;2023-05-10T01:50:32;1.10;;;0.40;;
1026;SDS011;502;48.746;9.214;2023-05-10T01:52:59;0.80;;;0.40;;
1026;SDS011;502;48.746;9.214;2023-05-10T01:55:27;1.20;;;0.50;;
1026;SDS011;502;48.746;9.214;2023-05-10T01:57:57;1.10;;;0.60;;
1026;SDS011;502;48.746;9.214;2023-05-10T02:00:27;1.53;;;0.40;;
1026;SDS011;502;48.746;9.214;2023-05-10T02:02:53;2.00;;;0.50;;
1026;SDS011;502;48.746;9.214;2023-05-10T02:05:22;0.80;;;0.47;;
1026;SDS011;502;48.746;9.214;2023-05-10T02:07:50;0.73;;;0.30;;
1026;SDS011;502;48.746;9.214;2023-05-10T02:10:17;1.37;;;0.60;;
1026;SDS011;502;48.746;9.214;2023-05-10T02:12:46;1.20;;;0.70;;
1026;SDS011;502;48.746;9.214;2023-05-10T02:15:15;1.67;;;0.60;;
1026;SDS011;502;48.746;9.214;2023-05-10T02:17:44;2.03;;;0.60;;
1026;SDS011;502;48.746;9.214;2023-05-10T02:20:12;0.80;;;0.43;;
1026;SDS011;502;48.746;9.214;2023-05-10T02:22:41;0.93;;;0.43;;
1026;SDS011;502;48.746;9.214;2023-05-10T02:25:09;1.00;;;0.50;;
1026;SDS011;502;48.746;9.214;2023-05-10T02:27:37;0.80;;;0.40;;
1026;SDS011;502;48.746;9.214;2023-05-10T02:30:04;1.10;;;0.40;;
1026;SDS011;502;48.746;9.214;2023-05-10T02:32:32;1.00;;;0.60;;
1026;SDS011;502;48.746;9.214;2023-05-10T02:34:59;0.90;;;0.50;;
1026;SDS011;502;48.746;9.214;2023-05-10T02:37:28;0.80;;;0.40;;
1026;SDS011;502;48.746;9.214;2023-05-10T02:39:56;1.60;;;0.53;;
1026;SDS011;502;48.746;9.214;2023-05-10T02:42:23;1.10;;;0.43;;
1026;SDS011;502;48.746;9.214;2023-05-10T02:44:54;1.00;;;0.50;;
1026;SDS011;502;48.746;9.214;2023-05-10T02:47:23;1.27;;;0.60;;
1026;SDS011;502;48.746;9.214;2023-05-10T02:49:49;7.53;;;0.70;;
1026;SDS011;502;48.746;9.214;2023-05-10T02:52:18;0.90;;;0.40;;
1026;SDS011;502;48.746;9.214;2023-05-10T02:54:50;1.00;;;0.53;;
1026;SDS011;502;48.746;9.214;2023-05-10T02:57:21;1.20;;;0.70;;
1026;SDS011;502;48.746;9.214;2023-05-10T02:59:51;0.90;;;0.40;;
1026;SDS011;502;48.746;9.214;2023-05-10T03:02:17;1.27;;;0.50;;
1026;SDS011;502;48.746;9.214;2023-05-10T03:04:44;1.20;;;0.60;;
1026;SDS011;502;48.746;9.214;2023-05-10T03:07:11;0.90;;;0.43;;
1026;SDS011;502;48.746;9.214;2023-05-10T03:09:37;1.23;;;0.67;;
1026;SDS011;502;48.746;9.214;2023-05-10T03:12:07;1.17;;;0.50;;
1026;SDS011;502;48.746;9.214;2023-05-10T03:14:42;1.40;;;0.70;;
1026;SDS011;502;48.746;9.214;2023-05-10T03:17:15;0.90;;;0.50;;
1026;SDS011;502;48.746;9.214;2023-05-10T03:19:46;1.20;;;0.80;;
1026;SDS011;502;48.746;9.214;2023-05-10T03:22:18;1.20;;;0.87;;
1026;SDS011;502;48.746;9.214;2023-05-10T03:24:49;1.47;;;0.70;;
1026;SDS011;502;48.746;9.214;2023-05-10T03:27:19;1.00;;;0.70;;
1026;SDS011;502;48.746;9.214;2023-05-10T03:29:47;1.50;;;0.90;;
1026;SDS011;502;48.746;9.214;2023-05-10T03:32:14;1.50;;;1.00;;
1026;SDS011;502;48.746;9.214;2023-05-10T03:34:41;1.50;;;0.97;;
1026;SDS011;502;48.746;9.214;2023-05-10T03:37:08;2.07;;;1.03;;
1026;SDS011;502;48.746;9.214;2023-05-10T03:39:35;1.60;;;1.20;;
1026;SDS011;502;48.746;9.214;2023-05-10T03:42:04;2.27;;;1.40;;
1026;SDS011;502;48.746;9.214;2023-05-10T03:44:31;2.33;;;1.03;;
1026;SDS011;502;48.746;9.214;2023-05-10T03:46:59;1.63;;;1.03;;
1026;SDS011;502;48.746;9.214;2023-05-10T03:49:26;2.53;;;1.20;;
1026;SDS011;502;48.746;9.214;2023-05-10T03:51:53;1.87;;;1.30;;
1026;SDS011;502;48.746;9.214;2023-05-10T03:54:19;1.70;;;1.23;;
1026;SDS011;502;48.746;9.214;2023-05-10T03:56:46;1.90;;;1.40;;
1026;SDS011;502;48.746;9.214;2023-05-10T03:59:14;2.03;;;1.60;;
1026;SDS011;502;48.746;9.214;2023-05-10T04:01:41;1.87;;;1.67;;
1026;SDS011;502;48.746;9.214;2023-05-10T04:04:10;1.60;;;1.27;;
1026;SDS011;502;48.746;9.214;2023-05-10T04:06:37;2.67;;;1.60;;
1026;SDS011;502;48.746;9.214;2023-05-10T04:09:04;2.60;;;2.03;;
1026;SDS011;502;48.746;9.214;2023-05-10T04:11:30;1.80;;;1.40;;
1026;SDS011;502;48.746;9.214;2023-05-10T04:13:57;2.23;;;1.43;;
1026;SDS011;502;48.746;9.214;2023-05-10T04:16:23;2.03;;;1.40;;
1026;SDS011;502;48.746;9.214;2023-05-10T04:18:50;1.80;;;1.50;;
1026;SDS011;502;48.746;9.214;2023-05-10T04:21:18;3.87;;;1.33;;
1026;SDS011;502;48.746;9.214;2023-05-10T04:23:44;1.93;;;1.47;;
1026;SDS011;502;48.746;9.214;2023-05-10T04:26:12;1.60;;;1.23;;
1026;SDS011;502;48.746;9.214;2023-05-10T04:28:39;1.50;;;1.10;;
1026;SDS011;502;48.746;9.214;2023-05-10T04:31:06;1.77;;;1.23;;
1026;SDS011;502;48.746;9.214;2023-05-10T04:33:33;4.20;;;1.37;;
1026;SDS011;502;48.746;9.214;2023-05-10T04:36:00;1.60;;;1.20;;
1026;SDS011;502;48.746;9.214;2023-05-10T04:38:28;1.90;;;1.40;;
1026;SDS011;502;48.746;9.214;2023-05-10T04:41:03;1.63;;;1.00;;
1026;SDS011;502;48.746;9.214;2023-05-10T04:43:31;3.60;;;1.30;;
1026;SDS011;502;48.746;9.214;2023-05-10T04:46:01;2.43;;;1.50;;
1026;SDS011;502;48.746;9.214;2023-05-10T04:48:28;5.03;;;1.13;;
1026;SDS011;502;48.746;9.214;2023-05-10T04:50:54;2.40;;;1.30;;
1026;SDS011;502;48.746;9.214;2023-05-10T04:53:23;1.77;;;1.47;;
1026;SDS011;502;48.746;9.214;2023-05-10T04:55:51;3.63;;;1.63;;
1026;SDS011;502;48.746;9.214;2023-05-10T04:58:17;2.17;;;1.50;;
1026;SDS011;502;48.746;9.214;2023-05-10T05:00:44;1.43;;;0.90;;
1026;SDS011;502;48.746;9.214;2023-05-10T05:03:10;1.43;;;1.17;;
1026;SDS011;502;48.746;9.214;2023-05-10T05:05:37;2.30;;;1.43;;
1026;SDS011;502;48.746;9.214;2023-05-10T05:08:03;2.30;;;1.43;;
1026;SDS011;502;48.746;9.214;2023-05-10T05:10:30;1.90;;;1.60;;
1026;SDS011;502;48.746;9.214;2023-05-10T05:12:58;2.30;;;1.33;;
1026;SDS011;502;48.746;9.214;2023-05-10T05:15:33;3.30;;;1.60;;
1026;SDS011;502;48.746;9.214;2023-05-10T05:18:01;2.00;;;1.40;;
1026;SDS011;502;48.746;9.214;2023-05-10T05:20:28;1.40;;;1.30;;
1026;SDS011;502;48.746;9.214;2023-05-10T05:22:54;1.90;;;1.37;;
1026;SDS011;502;48.746;9.214;2023-05-10T05:25:21;3.27;;;1.53;;
1026;SDS011;502;48.746;9.214;2023-05-10T05:27:47;1.50;;;1.30;;
1026;SDS011;502;48.746;9.214;2023-05-10T05:30:15;1.50;;;1.27;;
1026;SDS011;502;48.746;9.214;2023-05-10T05:32:42;1.63;;;1.40;;
1026;SDS011;502;48.746;9.214;2023-05-10T05:35:08;2.43;;;1.50;;
1026;SDS011;502;48.746;9.214;2023-05-10T05:37:42;1.70;;;1.30;;
1026;SDS011;502;48.746;9.214;2023-05-10T05:40:20;1.77;;;1.30;;
1026;SDS011;502;48.746;9.214;2023-05-10T05:42:46;1.93;;;1.50;;
1026;SDS011;502;48.746;9.214;2023-05-10T05:45:13;4.03;;;1.37;;
1026;SDS011;502;48.746;9.214;2023-05-10T05:47:41;4.17;;;1.77;;
1026;SDS011;502;48.746;9.214;2023-05-10T05:50:08;1.70;;;1.23;;
1026;SDS011;502;48.746;9.214;2023-05-10T05:52:35;1.97;;;1.70;;
1026;SDS011;502;48.746;9.214;2023-05-10T05:55:02;2.40;;;1.37;;
1026;SDS011;502;48.746;9.214;2023-05-10T05:57:29;1.90;;;1.60;;
1026;SDS011;502;48.746;9.214;2023-05-10T05:59:55;2.10;;;1.60;;
1026;SDS011;502;48.746;9.214;2023-05-10T06:02:22;2.20;;;1.60;;
1026;SDS011;502;48.746;9.214;2023-05-10T06:04:50;1.70;;;1.47;;
1026;SDS011;502;48.746;9.214;2023-05-10T06:07:16;2.93;;;1.47;;
1026;SDS011;502;48.746;9.214;2023-05-10T06:09:43;1.70;;;1.10;;
1026;SDS011;502;48.746;9.214;2023-05-10T06:12:09;2.10;;;1.70;;
1026;SDS011;502;48.746;9.214;2023-05-10T06:14:36;1.80;;;1.40;;
1026;SDS011;502;48.746;9.214;2023-05-10T06:17:03;2.10;;;1.63;;
1026;SDS011;502;48.746;9.214;2023-05-10T06:19:30;3.10;;;1.90;;
1026;SDS011;502;48.746;9.214;2023-05-10T06:21:58;2.50;;;1.83;;
1026;SDS011;502;48.746;9.214;2023-05-10T06:24:24;1.93;;;1.40;;
1026;SDS011;502;48.746;9.214;2023-05-10T06:26:52;4.00;;;1.40;;
1026;SDS011;502;48.746;9.214;2023-05-10T06:29:18;2.03;;;1.70;;
1026;SDS011;502;48.746;9.214;2023-05-10T06:31:45;2.20;;;1.47;;
1026;SDS011;502;48.746;9.214;2023-05-10T06:34:11;2.50;;;1.53;;
1026;SDS011;502;48.746;9.214;2023-05-10T06:36:38;1.60;;;1.40;;
1026;SDS011;502;48.746;9.214;2023-05-10T06:39:06;2.43;;;1.90;;
1026;SDS011;502;48.746;9.214;2023-05-10T06:41:33;1.70;;;1.30;;
1026;SDS011;502;48.746;9.214;2023-05-10T06:43:59;1.87;;;1.33;;
1026;SDS011;502;48.746;9.214;2023-05-10T06:46:26;2.00;;;1.67;;
1026;SDS011;502;48.746;9.214;2023-05-10T06:48:52;2.10;;;1.47;;
1026;SDS011;502;48.746;9.214;2023-05-10T06:51:19;2.40;;;1.80;;
1026;SDS011;502;48.746;9.214;2023-05-10T06:53:46;2.90;;;1.60;;
1026;SDS011;502;48.746;9.214;2023-05-10T06:56:14;2.23;;;1.90;;
1026;SDS011;502;48.746;9.214;2023-05-10T06:58:40;2.10;;;1.90;;
1026;SDS011;502;48.746;9.214;2023-05-10T07:01:07;2.00;;;1.80;;
1026;SDS011;502;48.746;9.214;2023-05-10T07:03:33;2.77;;;2.57;;
1026;SDS011;502;48.746;9.214;2023-05-10T07:06:00;2.37;;;1.93;;
1026;SDS011;502;48.746;9.214;2023-05-10T07:08:29;3.43;;;2.63;;
1026;SDS011;502;48.746;9.214;2023-05-10T07:10:59;3.87;;;2.13;;
1026;SDS011;502;48.746;9.214;2023-05-10T07:13:37;3.83;;;1.63;;
1026;SDS011;502;48.746;9.214;2023-05-10T07:16:06;1.97;;;1.60;;
1026;SDS011;502;48.746;9.214;2023-05-10T07:18:33;2.30;;;2.00;;
1026;SDS011;502;48.746;9.214;2023-05-10T07:20:59;2.20;;;1.80;;
1026;SDS011;502;48.746;9.214;2023-05-10T07:23:26;2.30;;;2.10;;
1026;SDS011;502;48.746;9.214;2023-05-10T07:25:53;2.40;;;2.10;;
1026;SDS011;502;48.746;9.214;2023-05-10T07:28:19;2.70;;;2.30;;
1026;SDS011;502;48.746;9.214;2023-05-10T07:30:47;2.60;;;2.03;;
1026;SDS011;502;48.746;9.214;2023-05-10T07:33:14;3.10;;;1.83;;
1026;SDS011;502;48.746;9.214;2023-05-10T07:35:41;2.37;;;2.10;;
1026;SDS011;502;48.746;9.214;2023-05-10T07:38:07;2.50;;;2.00;;
1026;SDS011;502;48.746;9.214;2023-05-10T07:40:36;3.70;;;2.13;;
1026;SDS011;502;48.746;9.214;2023-05-10T07:43:03;2.60;;;2.00;;
1026;SDS011;502;48.746;9.214;2023-05-10T07:45:29;2.30;;;2.00;;
1026;SDS011;502;48.746;9.214;2023-05-10T07:47:57;2.23;;;1.90;;
1026;SDS011;502;48.746;9.214;2023-05-10T07:50:23;2.40;;;1.80;;
1026;SDS011;502;48.746;9.214;2023-05-10T07:52:50;2.70;;;1.77;;
1026;SDS011;502;48.746;9.214;2023-05-10T07:55:18;2.07;;;1.53;;
1026;SDS011;502;48.746;9.214;2023-05-10T07:57:46;2.23;;;1.90;;
1026;SDS011;502;48.746;9.214;2023-05-10T08:00:13;2.10;;;1.57;;
1026;SDS011;502;48.746;9.214;2023-05-10T08:02:43;3.10;;;1.60;;
1026;SDS011;502;48.746;9.214;2023-05-10T08:05:11;1.80;;;1.40;;
1026;SDS011;502;48.746;9.214;2023-05-10T08:07:38;1.80;;;1.50;;
1026;SDS011;502;48.746;9.214;2023-05-10T08:10:05;1.47;;;1.20;;
1026;SDS011;502;48.746;9.214;2023-05-10T08:12:33;1.83;;;1.40;;
1026;SDS011;502;48.746;9.214;2023-05-10T08:14:59;3.67;;;1.60;;
1026;SDS011;502;48.746;9.214;2023-05-10T08:17:26;2.87;;;1.80;;
1026;SDS011;502;48.746;9.214;2023-05-10T08:19:52;2.00;;;1.40;;
1026;SDS011;502;48.746;9.214;2023-05-10T08:22:20;1.77;;;1.67;;
1026;SDS011;502;48.746;9.214;2023-05-10T08:24:47;1.63;;;1.43;;
1026;SDS011;502;48.746;9.214;2023-05-10T08:27:14;1.60;;;1.13;;
1026;SDS011;502;48.746;9.214;2023-05-10T08:29:40;2.87;;;1.10;;
1026;SDS011;502;48.746;9.214;2023-05-10T08:32:07;2.33;;;1.50;;
1026;SDS011;502;48.746;9.214;2023-05-10T08:34:33;1.70;;;1.40;;
1026;SDS011;502;48.746;9.214;2023-05-10T08:37:00;1.93;;;1.60;;
1026;SDS011;502;48.746;9.214;2023-05-10T08:39:27;2.30;;;1.50;;
1026;SDS011;502;48.746;9.214;2023-05-10T08:41:54;3.40;;;1.60;;
1026;SDS011;502;48.746;9.214;2023-05-10T08:44:24;2.43;;;1.50;;
1026;SDS011;502;48.746;9.214;2023-05-10T08:46:51;2.20;;;1.20;;
1026;SDS011;502;48.746;9.214;2023-05-10T08:49:19;2.30;;;1.50;;
1026;SDS011;502;48.746;9.214;2023-05-10T08:51:47;1.60;;;1.10;;
1026;SDS011;502;48.746;9.214;2023-05-10T08:54:16;1.30;;;1.07;;
1026;SDS011;502;48.746;9.214;2023-05-10T08:56:45;1.77;;;1.33;;
1026;SDS011;502;48.746;9.214;2023-05-10T08:59:11;1.60;;;1.10;;
1026;SDS011;502;48.746;9.214;2023-05-10T09:01:39;2.00;;;1.60;;
1026;SDS011;502;48.746;9.214;2023-05-10T09:04:06;1.60;;;1.20;;
1026;SDS011;502;48.746;9.214;2023-05-10T09:06:33;1.50;;;1.10;;
1026;SDS011;502;48.746;9.214;2023-05-10T09:09:00;1.40;;;1.10;;
1026;SDS011;502;48.746;9.214;2023-05-10T09:11:26;1.27;;;0.70;;
1026;SDS011;502;48.746;9.214;2023-05-10T09:13:56;1.90;;;1.20;;
1026;SDS011;502;48.746;9.214;2023-05-10T09:16:23;1.50;;;1.10;;
1026;SDS011;502;48.746;9.214;2023-05-10T09:18:49;1.80;;;1.00;;
1026;SDS011;502;48.746;9.214;2023-05-10T09:21:16;2.50;;;1.20;;
1026;SDS011;502;48.746;9.214;2023-05-10T09:23:42;1.43;;;1.17;;
1026;SDS011;502;48.746;9.214;2023-05-10T09:26:09;2.17;;;1.30;;
1026;SDS011;502;48.746;9.214;2023-05-10T09:28:49;1.30;;;1.00;;
1026;SDS011;502;48.746;9.214;2023-05-10T09:31:18;3.80;;;1.43;;
1026;SDS011;502;48.746;9.214;2023-05-10T09:33:45;2.10;;;0.90;;
1026;SDS011;502;48.746;9.214;2023-05-10T09:36:12;2.33;;;1.20;;
1026;SDS011;502;48.746;9.214;2023-05-10T09:38:45;3.53;;;1.00;;
1026;SDS011;502;48.746;9.214;2023-05-10T09:41:16;3.60;;;1.30;;
1026;SDS011;502;48.746;9.214;2023-05-10T09:43:43;1.30;;;0.97;;
1026;SDS011;502;48.746;9.214;2023-05-10T09:46:10;1.60;;;1.03;;
1026;SDS011;502;48.746;9.214;2023-05-10T09:48:41;7.03;;;1.60;;
1026;SDS011;502;48.746;9.214;2023-05-10T09:51:09;1.20;;;0.93;;
1026;SDS011;502;48.746;9.214;2023-05-10T09:53:36;2.20;;;1.13;;
1026;SDS011;502;48.746;9.214;2023-05-10T09:56:02;1.40;;;1.10;;
1026;SDS011;502;48.746;9.214;2023-05-10T09:58:29;1.77;;;1.07;;
1026;SDS011;502;48.746;9.214;2023-05-10T10:00:55;1.00;;;0.70;;
1026;SDS011;502;48.746;9.214;2023-05-10T10:03:22;1.20;;;1.00;;
1026;SDS011;502;48.746;9.214;2023-05-10T10:05:50;1.30;;;1.10;;
1026;SDS011;502;48.746;9.214;2023-05-10T10:08:18;1.20;;;1.03;;
1026;SDS011;502;48.746;9.214;2023-05-10T10:10:45;1.30;;;0.87;;
1026;SDS011;502;48.746;9.214;2023-05-10T10:13:13;1.20;;;0.87;;
1026;SDS011;502;48.746;9.214;2023-05-10T10:15:40;2.37;;;0.90;;
1026;SDS011;502;48.746;9.214;2023-05-10T10:18:07;1.20;;;0.70;;
1026;SDS011;502;48.746;9.214;2023-05-10T10:20:38;1.60;;;0.90;;
1026;SDS011;502;48.746;9.214;2023-05-10T10:23:06;1.00;;;0.70;;
1026;SDS011;502;48.746;9.214;2023-05-10T10:25:34;3.03;;;1.00;;
1026;SDS011;502;48.746;9.214;2023-05-10T10:28:05;1.20;;;1.00;;
1026;SDS011;502;48.746;9.214;2023-05-10T10:30:38;1.57;;;1.10;;
1026;SDS011;502;48.746;9.214;2023-05-10T10:36:14;1.00;;;0.70;;
1026;SDS011;502;48.746;9.214;2023-05-10T10:38:58;1.60;;;0.93;;
1026;SDS011;502;48.746;9.214;2023-05-10T10:41:30;1.60;;;0.90;;
1026;SDS011;502;48.746;9.214;2023-05-10T10:47:02;1.17;;;0.93;;
1026;SDS011;502;48.746;9.214;2023-05-10T10:49:34;1.20;;;0.90;;
1026;SDS011;502;48.746;9.214;2023-05-10T10:52:13;1.60;;;1.00;;
1026;SDS011;502;48.746;9.214;2023-05-10T10:54:54;1.50;;;1.10;;
1026;SDS011;502;48.746;9.214;2023-05-10T10:57:24;1.40;;;1.00;;
1026;SDS011;502;48.746;9.214;2023-05-10T10:59:54;1.20;;;0.77;;
1026;SDS011;502;48.746;9.214;2023-05-10T11:03:05;1.20;;;0.77;;
1026;SDS011;502;48.746;9.214;2023-05-10T11:05:36;1.50;;;1.00;;
1026;SDS011;502;48.746;9.214;2023-05-10T11:08:09;1.30;;;0.93;;
1026;SDS011;502;48.746;9.214;2023-05-10T11:11:01;2.00;;;1.13;;
1026;SDS011;502;48.746;9.214;2023-05-10T11:13:32;1.60;;;1.50;;
1026;SDS011;502;48.746;9.214;2023-05-10T11:16:09;3.03;;;0.70;;
1026;SDS011;502;48.746;9.214;2023-05-10T11:18:40;1.53;;;0.80;;
1026;SDS011;502;48.746;9.214;2023-05-10T11:21:08;2.10;;;0.80;;
1026;SDS011;502;48.746;9.214;2023-05-10T11:23:47;1.90;;;0.90;;
1026;SDS011;502;48.746;9.214;2023-05-10T11:26:16;1.40;;;0.90;;
1026;SDS011;502;48.746;9.214;2023-05-10T11:28:43;1.80;;;0.83;;
1026;SDS011;502;48.746;9.214;2023-05-10T11:31:10;1.83;;;0.63;;
1026;SDS011;502;48.746;9.214;2023-05-10T11:33:42;1.20;;;0.60;;
1026;SDS011;502;48.746;9.214;2023-05-10T11:36:10;1.10;;;0.60;;
1026;SDS011;502;48.746;9.214;2023-05-10T11:38:37;1.40;;;0.70;;
1026;SDS011;502;48.746;9.214;2023-05-10T11:41:03;2.87;;;1.00;;
1026;SDS011;502;48.746;9.214;2023-05-10T11:43:31;1.33;;;0.70;;
1026;SDS011;502;48.746;9.214;2023-05-10T11:45:58;3.20;;;0.90;;
1026;SDS011;502;48.746;9.214;2023-05-10T11:48:26;2.60;;;0.90;;
1026;SDS011;502;48.746;9.214;2023-05-10T11:50:52;1.63;;;1.00;;
1026;SDS011;502;48.746;9.214;2023-05-10T11:53:22;1.60;;;0.90;;
1026;SDS011;502;48.746;9.214;2023-05-10T11:55:48;1.60;;;0.80;;
1026;SDS011;502;48.746;9.214;2023-05-10T11:58:15;1.70;;;0.90;;
1026;SDS011;502;48.746;9.214;2023-05-10T12:00:42;3.70;;;0.83;;
1026;SDS011;502;48.746;9.214;2023-05-10T12:03:09;1.30;;;1.10;;
1026;SDS011;502;48.746;9.214;2023-05-10T12:05:36;1.23;;;0.80;;
1026;SDS011;502;48.746;9.214;2023-05-10T12:08:12;1.90;;;0.87;;
1026;SDS011;502;48.746;9.214;2023-05-10T12:10:39;1.73;;;1.10;;
1026;SDS011;502;48.746;9.214;2023-05-10T12:13:10;1.50;;;1.10;;
1026;SDS011;502;48.746;9.214;2023-05-10T12:15:37;1.73;;;0.97;;
1026;SDS011;502;48.746;9.214;2023-05-10T12:18:05;1.20;;;0.97;;
1026;SDS011;502;48.746;9.214;2023-05-10T12:20:31;3.40;;;1.40;;
1026;SDS011;502;48.746;9.214;2023-05-10T12:22:58;1.30;;;1.00;;
1026;SDS011;502;48.746;9.214;2023-05-10T12:25:29;1.87;;;1.10;;
1026;SDS011;502;48.746;9.214;2023-05-10T12:27:57;3.33;;;1.80;;
1026;SDS011;502;48.746;9.214;2023-05-10T12:30:26;2.17;;;1.40;;
1026;SDS011;502;48.746;9.214;2023-05-10T12:32:53;1.63;;;1.10;;
1026;SDS011;502;48.746;9.214;2023-05-10T12:35:22;2.13;;;1.50;;
1026;SDS011;502;48.746;9.214;2023-05-10T12:37:50;1.60;;;1.10;;
1026;SDS011;502;48.746;9.214;2023-05-10T12:40:16;2.70;;;1.60;;
1026;SDS011;502;48.746;9.214;2023-05-10T12:42:43;2.97;;;1.33;;
1026;SDS011;502;48.746;9.214;2023-05-10T12:45:10;2.33;;;1.30;;
1026;SDS011;502;48.746;9.214;2023-05-10T12:47:37;1.60;;;1.30;;
1026;SDS011;502;48.746;9.214;2023-05-10T12:50:04;1.97;;;1.30;;
1026;SDS011;502;48.746;9.214;2023-05-10T12:52:32;1.50;;;1.20;;
1026;SDS011;502;48.746;9.214;2023-05-10T12:55:00;2.63;;;1.20;;
1026;SDS011;502;48.746;9.214;2023-05-10T12:57:28;1.50;;;1.13;;
1026;SDS011;502;48.746;9.214;2023-05-10T12:59:55;1.30;;;1.00;;
1026;SDS011;502;48.746;9.214;2023-05-10T13:02:21;1.53;;;1.40;;
1026;SDS011;502;48.746;9.214;2023-05-10T13:04:48;2.70;;;1.30;;
1026;SDS011;502;48.746;9.214;2023-05-10T13:07:15;1.83;;;1.40;;
1026;SDS011;502;48.746;9.214;2023-05-10T13:09:43;2.60;;;1.30;;
1026;SDS011;502;48.746;9.214;2023-05-10T13:12:09;2.50;;;1.40;;
1026;SDS011;502;48.746;9.214;2023-05-10T13:14:36;2.43;;;1.50;;
1026;SDS011;502;48.746;9.214;2023-05-10T13:17:02;1.93;;;1.33;;
1026;SDS011;502;48.746;9.214;2023-05-10T13:19:29;1.50;;;1.40;;
1026;SDS011;502;48.746;9.214;2023-05-10T13:21:55;2.77;;;1.87;;
1026;SDS011;502;48.746;9.214;2023-05-10T13:24:22;1.90;;;1.53;;
1026;SDS011;502;48.746;9.214;2023-05-10T13:26:50;2.80;;;1.27;;
1026;SDS011;502;48.746;9.214;2023-05-10T13:29:16;2.40;;;1.80;;
1026;SDS011;502;48.746;9.214;2023-05-10T13:31:43;1.70;;;1.60;;
1026;SDS011;502;48.746;9.214;2023-05-10T13:34:10;2.13;;;1.60;;
1026;SDS011;502;48.746;9.214;2023-05-10T13:36:36;2.20;;;1.23;;
1026;SDS011;502;48.746;9.214;2023-05-10T13:39:03;2.27;;;1.27;;
1026;SDS011;502;48.746;9.214;2023-05-10T13:41:30;1.93;;;1.40;;
1026;SDS011;502;48.746;9.214;2023-05-10T13:43:58;2.73;;;1.30;;
1026;SDS011;502;48.746;9.214;2023-05-10T13:46:24;2.50;;;1.40;;
1026;SDS011;502;48.746;9.214;2023-05-10T13:48:51;2.53;;;1.23;;
1026;SDS011;502;48.746;9.214;2023-05-10T13:51:17;1.77;;;1.47;;
1026;SDS011;502;48.746;9.214;2023-05-10T13:53:44;1.63;;;1.53;;
1026;SDS011;502;48.746;9.214;2023-05-10T13:56:12;1.50;;;1.27;;
1026;SDS011;502;48.746;9.214;2023-05-10T13:58:39;2.80;;;1.47;;
1026;SDS011;502;48.746;9.214;2023-05-10T14:01:06;3.20;;;1.67;;
1026;SDS011;502;48.746;9.214;2023-05-10T14:03:33;1.53;;;1.30;;
1026;SDS011;502;48.746;9.214;2023-05-10T14:05:59;2.87;;;1.77;;
1026;SDS011;502;48.746;9.214;2023-05-10T14:08:26;3.27;;;1.70;;
1026;SDS011;502;48.746;9.214;2023-05-10T14:10:53;3.13;;;1.80;;
1026;SDS011;502;48.746;9.214;2023-05-10T14:13:21;2.20;;;1.47;;
1026;SDS011;502;48.746;9.214;2023-05-10T14:15:47;2.33;;;1.23;;
1026;SDS011;502;48.746;9.214;2023-05-10T14:18:15;2.43;;;1.20;;
1026;SDS011;502;48.746;9.214;2023-05-10T14:20:42;1.60;;;1.20;;
1026;SDS011;502;48.746;9.214;2023-05-10T14:23:08;2.03;;;1.80;;
1026;SDS011;502;48.746;9.214;2023-05-10T14:25:35;2.33;;;1.30;;
1026;SDS011;502;48.746;9.214;2023-05-10T14:28:03;1.40;;;1.17;;
1026;SDS011;502;48.746;9.214;2023-05-10T14:30:30;2.40;;;1.50;;
1026;SDS011;502;48.746;9.214;2023-05-10T14:32:57;2.23;;;1.40;;
1026;SDS011;502;48.746;9.214;2023-05-10T14:35:27;1.70;;;1.17;;
1026;SDS011;502;48.746;9.214;2023-05-10T14:37:56;1.20;;;1.00;;
1026;SDS011;502;48.746;9.214;2023-05-10T14:40:22;1.70;;;1.30;;
1026;SDS011;502;48.746;9.214;2023-05-10T14:42:49;4.13;;;1.50;;
1026;SDS011;502;48.746;9.214;2023-05-10T14:45:18;2.47;;;1.50;;
1026;SDS011;502;48.746;9.214;2023-05-10T14:47:44;1.40;;;1.10;;
1026;SDS011;502;48.746;9.214;2023-05-10T14:50:11;1.70;;;1.40;;
1026;SDS011;502;48.746;9.214;2023-05-10T14:52:39;1.87;;;1.20;;
1026;SDS011;502;48.746;9.214;2023-05-10T14:55:06;2.17;;;1.30;;
1026;SDS011;502;48.746;9.214;2023-05-10T14:57:33;2.83;;;1.57;;
1026;SDS011;502;48.746;9.214;2023-05-10T14:59:59;2.33;;;1.20;;
1026;SDS011;502;48.746;9.214;2023-05-10T15:02:26;1.97;;;1.17;;
1026;SDS011;502;48.746;9.214;2023-05-10T15:04:52;1.40;;;1.20;;
1026;SDS011;502;48.746;9.214;2023-05-10T15:07:19;1.40;;;1.20;;
1026;SDS011;502;48.746;9.214;2023-05-10T15:09:47;2.63;;;1.20;;
1026;SDS011;502;48.746;9.214;2023-05-10T15:12:13;1.30;;;1.17;;
1026;SDS011;502;48.746;9.214;2023-05-10T15:14:40;2.07;;;1.50;;
1026;SDS011;502;48.746;9.214;2023-05-10T15:17:06;1.50;;;1.20;;
1026;SDS011;502;48.746;9.214;2023-05-10T15:19:33;1.40;;;1.00;;
1026;SDS011;502;48.746;9.214;2023-05-10T15:21:59;2.13;;;1.27;;
1026;SDS011;502;48.746;9.214;2023-05-10T15:24:26;1.30;;;1.17;;
1026;SDS011;502;48.746;9.214;2023-05-10T15:26:54;1.40;;;1.17;;
1026;SDS011;502;48.746;9.214;2023-05-10T15:29:20;1.50;;;1.40;;
1026;SDS011;502;48.746;9.214;2023-05-10T15:31:47;2.40;;;1.30;;
1026;SDS011;502;48.746;9.214;2023-05-10T15:34:14;1.70;;;1.30;;
1026;SDS011;502;48.746;9.214;2023-05-10T15:36:40;2.67;;;1.40;;
1026;SDS011;502;48.746;9.214;2023-05-10T15:39:07;4.33;;;1.50;;
1026;SDS011;502;48.746;9.214;2023-05-10T15:41:34;1.70;;;1.40;;
1026;SDS011;502;48.746;9.214;2023-05-10T15:44:02;6.37;;;3.50;;